sensor_id;sensor_type;location;lat;lon;timestamp;temperature;humidity
25628;DHT22;40915;50.826;4.356;2022-08-19T01:33:44;20.20;99.90
25628;DHT22;40915;50.826;4.356;2022-08-19T01:36:16;20.20;99.90
25628;DHT22;40915;50.826;4.356;2022-08-19T01:38:43;20.10;99.90
25628;DHT22;40915;50.826;4.356;2022-08-19T01:41:11;20.00;99.90
25628;DHT22;40915;50.826;4.356;2022-08-19T01:43:38;19.90;99.90
25628;DHT22;40915;50.826;4.356;2022-08-19T01:46:04;19.90;99.90
25628;DHT22;40915;50.826;4.356;2022-08-19T01:48:35;19.90;99.90
25628;DHT22;40915;50.826;4.356;2022-08-19T01:51:01;19.90;99.90
25628;DHT22;40915;50.826;4.356;2022-08-19T01:53:27;19.80;99.90
25628;DHT22;40915;50.826;4.356;2022-08-19T01:55:53;19.80;99.90
25628;DHT22;40915;50.826;4.356;2022-08-19T01:58:23;19.80;99.90
25628;DHT22;40915;50.826;4.356;2022-08-19T02:00:50;19.70;99.90
25628;DHT22;40915;50.826;4.356;2022-08-19T02:03:16;19.70;99.90
25628;DHT22;40915;50.826;4.356;2022-08-19T02:05:44;19.70;99.90
25628;DHT22;40915;50.826;4.356;2022-08-19T02:08:11;19.70;99.90
25628;DHT22;40915;50.826;4.356;2022-08-19T02:10:43;19.60;99.90
25628;DHT22;40915;50.826;4.356;2022-08-19T02:13:11;19.60;99.90
25628;DHT22;40915;50.826;4.356;2022-08-19T02:15:37;19.50;99.90
25628;DHT22;40915;50.826;4.356;2022-08-19T02:18:02;19.50;99.90
25628;DHT22;40915;50.826;4.356;2022-08-19T02:20:28;19.40;99.90
25628;DHT22;40915;50.826;4.356;2022-08-19T02:22:54;19.40;99.90
25628;DHT22;40915;50.826;4.356;2022-08-19T02:25:19;19.40;99.90
25628;DHT22;40915;50.826;4.356;2022-08-19T02:45:20;19.10;99.90
25628;DHT22;40915;50.826;4.356;2022-08-19T02:47:46;19.30;99.90
25628;DHT22;40915;50.826;4.356;2022-08-19T02:50:11;19.20;99.90
25628;DHT22;40915;50.826;4.356;2022-08-19T02:52:38;19.20;99.90
25628;DHT22;40915;50.826;4.356;2022-08-19T02:55:05;19.00;99.90
25628;DHT22;40915;50.826;4.356;2022-08-19T02:57:31;19.00;99.90
25628;DHT22;40915;50.826;4.356;2022-08-19T02:59:57;19.00;99.90
25628;DHT22;40915;50.826;4.356;2022-08-19T03:02:23;19.00;99.90
25628;DHT22;40915;50.826;4.356;2022-08-19T03:04:49;19.00;99.90
25628;DHT22;40915;50.826;4.356;2022-08-19T03:07:16;18.90;99.90
25628;DHT22;40915;50.826;4.356;2022-08-19T03:09:42;18.90;99.90
25628;DHT22;40915;50.826;4.356;2022-08-19T03:29:17;18.90;99.90
25628;DHT22;40915;50.826;4.356;2022-08-19T03:31:43;18.80;99.90
25628;DHT22;40915;50.826;4.356;2022-08-19T03:34:12;18.70;99.90
25628;DHT22;40915;50.826;4.356;2022-08-19T03:36:38;18.70;99.90
25628;DHT22;40915;50.826;4.356;2022-08-19T03:39:04;18.70;99.90
25628;DHT22;40915;50.826;4.356;2022-08-19T03:41:36;18.70;99.90
25628;DHT22;40915;50.826;4.356;2022-08-19T03:44:03;18.60;99.90
25628;DHT22;40915;50.826;4.356;2022-08-19T03:46:31;18.60;99.90
25628;DHT22;40915;50.826;4.356;2022-08-19T03:48:59;18.60;99.90
25628;DHT22;40915;50.826;4.356;2022-08-19T03:51:31;18.50;99.90
25628;DHT22;40915;50.826;4.356;2022-08-19T03:53:59;18.50;99.90
25628;DHT22;40915;50.826;4.356;2022-08-19T03:56:26;18.40;99.90
25628;DHT22;40915;50.826;4.356;2022-08-19T03:58:54;18.40;99.90
25628;DHT22;40915;50.826;4.356;2022-08-19T04:01:21;18.40;99.90
25628;DHT22;40915;50.826;4.356;2022-08-19T04:03:47;18.40;99.90
25628;DHT22;40915;50.826;4.356;2022-08-19T04:08:41;18.30;99.90
25628;DHT22;40915;50.826;4.356;2022-08-19T04:11:10;18.30;99.90
25628;DHT22;40915;50.826;4.356;2022-08-19T04:13:36;18.20;99.90
25628;DHT22;40915;50.826;4.356;2022-08-19T04:16:02;18.20;99.90
25628;DHT22;40915;50.826;4.356;2022-08-19T04:18:28;18.20;99.90
25628;DHT22;40915;50.826;4.356;2022-08-19T04:20:55;18.20;99.90
25628;DHT22;40915;50.826;4.356;2022-08-19T04:23:22;18.20;99.90
25628;DHT22;40915;50.826;4.356;2022-08-19T04:25:48;18.10;99.90
25628;DHT22;40915;50.826;4.356;2022-08-19T04:28:14;18.10;99.90
25628;DHT22;40915;50.826;4.356;2022-08-19T04:30:42;18.10;99.90
25628;DHT22;40915;50.826;4.356;2022-08-19T04:33:09;18.00;99.90
25628;DHT22;40915;50.826;4.356;2022-08-19T04:35:39;18.00;99.90
25628;DHT22;40915;50.826;4.356;2022-08-19T04:38:06;18.00;99.90
25628;DHT22;40915;50.826;4.356;2022-08-19T04:40:31;18.00;99.90
25628;DHT22;40915;50.826;4.356;2022-08-19T04:43:16;18.00;99.90
25628;DHT22;40915;50.826;4.356;2022-08-19T04:45:47;18.00;99.90
25628;DHT22;40915;50.826;4.356;2022-08-19T04:48:12;18.00;99.90
25628;DHT22;40915;50.826;4.356;2022-08-19T04:50:42;17.90;99.90
25628;DHT22;40915;50.826;4.356;2022-08-19T04:53:09;17.90;99.90
25628;DHT22;40915;50.826;4.356;2022-08-19T04:55:37;17.90;99.90
25628;DHT22;40915;50.826;4.356;2022-08-19T04:58:03;17.90;99.90
25628;DHT22;40915;50.826;4.356;2022-08-19T05:00:29;18.00;99.90
25628;DHT22;40915;50.826;4.356;2022-08-19T05:02:54;17.90;99.90
25628;DHT22;40915;50.826;4.356;2022-08-19T05:05:20;18.00;99.90
25628;DHT22;40915;50.826;4.356;2022-08-19T05:07:46;18.00;99.90
25628;DHT22;40915;50.826;4.356;2022-08-19T05:10:12;18.00;99.90
25628;DHT22;40915;50.826;4.356;2022-08-19T05:12:38;18.00;99.90
25628;DHT22;40915;50.826;4.356;2022-08-19T05:15:05;18.00;99.90
25628;DHT22;40915;50.826;4.356;2022-08-19T05:17:31;18.10;99.90
25628;DHT22;40915;50.826;4.356;2022-08-19T05:19:57;18.10;99.90
25628;DHT22;40915;50.826;4.356;2022-08-19T05:22:44;18.10;99.90
25628;DHT22;40915;50.826;4.356;2022-08-19T05:25:13;18.20;99.90
25628;DHT22;40915;50.826;4.356;2022-08-19T05:27:40;18.20;99.90
25628;DHT22;40915;50.826;4.356;2022-08-19T05:30:06;18.20;99.90
25628;DHT22;40915;50.826;4.356;2022-08-19T05:32:32;18.20;99.90
25628;DHT22;40915;50.826;4.356;2022-08-19T05:34:58;18.20;99.90
25628;DHT22;40915;50.826;4.356;2022-08-19T05:37:23;18.30;99.90
25628;DHT22;40915;50.826;4.356;2022-08-19T05:39:52;18.30;99.90
25628;DHT22;40915;50.826;4.356;2022-08-19T05:42:19;18.30;99.90
25628;DHT22;40915;50.826;4.356;2022-08-19T05:44:45;18.40;99.90
25628;DHT22;40915;50.826;4.356;2022-08-19T05:47:13;18.50;99.90
25628;DHT22;40915;50.826;4.356;2022-08-19T05:49:41;18.60;99.90
25628;DHT22;40915;50.826;4.356;2022-08-19T05:52:09;18.60;99.90
25628;DHT22;40915;50.826;4.356;2022-08-19T05:54:37;18.70;99.90
25628;DHT22;40915;50.826;4.356;2022-08-19T05:57:05;18.70;99.90
25628;DHT22;40915;50.826;4.356;2022-08-19T05:59:31;18.80;99.90
25628;DHT22;40915;50.826;4.356;2022-08-19T06:01:57;18.90;99.90
25628;DHT22;40915;50.826;4.356;2022-08-19T06:04:23;18.90;99.90
25628;DHT22;40915;50.826;4.356;2022-08-19T06:06:50;19.00;99.90
25628;DHT22;40915;50.826;4.356;2022-08-19T06:09:17;19.10;99.90
25628;DHT22;40915;50.826;4.356;2022-08-19T06:11:46;19.20;99.90
25628;DHT22;40915;50.826;4.356;2022-08-19T06:14:16;19.30;99.90
25628;DHT22;40915;50.826;4.356;2022-08-19T06:16:43;19.50;99.90
25628;DHT22;40915;50.826;4.356;2022-08-19T06:19:13;19.70;99.90
25628;DHT22;40915;50.826;4.356;2022-08-19T06:21:47;19.70;99.90
25628;DHT22;40915;50.826;4.356;2022-08-19T06:24:19;19.70;99.90
25628;DHT22;40915;50.826;4.356;2022-08-19T06:29:27;19.70;99.90
25628;DHT22;40915;50.826;4.356;2022-08-19T06:31:56;19.70;99.90
25628;DHT22;40915;50.826;4.356;2022-08-19T06:34:23;19.80;99.90
25628;DHT22;40915;50.826;4.356;2022-08-19T06:36:50;20.00;99.90
25628;DHT22;40915;50.826;4.356;2022-08-19T06:39:23;20.30;99.90
25628;DHT22;40915;50.826;4.356;2022-08-19T06:41:52;20.70;99.90
25628;DHT22;40915;50.826;4.356;2022-08-19T06:44:21;21.00;99.90
25628;DHT22;40915;50.826;4.356;2022-08-19T06:46:47;21.10;99.90
25628;DHT22;40915;50.826;4.356;2022-08-19T06:49:14;21.10;99.90
25628;DHT22;40915;50.826;4.356;2022-08-19T06:51:45;21.00;99.90
25628;DHT22;40915;50.826;4.356;2022-08-19T06:54:13;20.90;99.90
25628;DHT22;40915;50.826;4.356;2022-08-19T06:56:39;20.90;99.90
25628;DHT22;40915;50.826;4.356;2022-08-19T06:59:08;20.80;99.90
25628;DHT22;40915;50.826;4.356;2022-08-19T07:01:36;20.70;99.90
25628;DHT22;40915;50.826;4.356;2022-08-19T07:04:04;20.70;99.90
25628;DHT22;40915;50.826;4.356;2022-08-19T07:06:29;20.50;99.90
25628;DHT22;40915;50.826;4.356;2022-08-19T07:08:57;20.40;99.90
25628;DHT22;40915;50.826;4.356;2022-08-19T07:11:23;20.20;99.90
25628;DHT22;40915;50.826;4.356;2022-08-19T07:13:50;20.10;99.90
25628;DHT22;40915;50.826;4.356;2022-08-19T07:16:17;20.10;99.90
25628;DHT22;40915;50.826;4.356;2022-08-19T07:18:48;20.20;99.90
25628;DHT22;40915;50.826;4.356;2022-08-19T07:21:17;20.30;99.90
25628;DHT22;40915;50.826;4.356;2022-08-19T07:23:44;20.40;99.90
25628;DHT22;40915;50.826;4.356;2022-08-19T07:28:41;20.60;99.90
25628;DHT22;40915;50.826;4.356;2022-08-19T07:31:11;20.60;99.90
25628;DHT22;40915;50.826;4.356;2022-08-19T07:33:39;20.70;99.90
25628;DHT22;40915;50.826;4.356;2022-08-19T07:36:07;20.80;99.90
25628;DHT22;40915;50.826;4.356;2022-08-19T07:38:35;20.80;99.90
25628;DHT22;40915;50.826;4.356;2022-08-19T07:41:01;20.90;99.90
25628;DHT22;40915;50.826;4.356;2022-08-19T07:43:27;20.90;99.90
25628;DHT22;40915;50.826;4.356;2022-08-19T07:45:54;20.90;99.90
25628;DHT22;40915;50.826;4.356;2022-08-19T07:48:23;21.00;99.90
25628;DHT22;40915;50.826;4.356;2022-08-19T07:50:54;21.30;99.90
25628;DHT22;40915;50.826;4.356;2022-08-19T07:53:21;21.30;99.90
25628;DHT22;40915;50.826;4.356;2022-08-19T07:55:47;21.20;99.90
25628;DHT22;40915;50.826;4.356;2022-08-19T07:58:15;21.20;99.90
25628;DHT22;40915;50.826;4.356;2022-08-19T08:00:43;21.30;99.90
25628;DHT22;40915;50.826;4.356;2022-08-19T08:03:10;21.40;99.90
25628;DHT22;40915;50.826;4.356;2022-08-19T08:05:35;21.60;99.90
25628;DHT22;40915;50.826;4.356;2022-08-19T08:08:20;21.70;99.90
25628;DHT22;40915;50.826;4.356;2022-08-19T08:10:48;21.70;99.90
25628;DHT22;40915;50.826;4.356;2022-08-19T08:13:14;21.70;99.90
25628;DHT22;40915;50.826;4.356;2022-08-19T08:15:40;21.60;99.90
25628;DHT22;40915;50.826;4.356;2022-08-19T08:18:05;21.60;99.90
25628;DHT22;40915;50.826;4.356;2022-08-19T08:20:32;21.60;99.90
25628;DHT22;40915;50.826;4.356;2022-08-19T08:22:57;21.80;99.90
25628;DHT22;40915;50.826;4.356;2022-08-19T08:26:01;21.90;99.90
25628;DHT22;40915;50.826;4.356;2022-08-19T08:28:28;22.10;99.90
25628;DHT22;40915;50.826;4.356;2022-08-19T08:30:54;22.10;99.90
25628;DHT22;40915;50.826;4.356;2022-08-19T08:33:24;22.10;99.90
25628;DHT22;40915;50.826;4.356;2022-08-19T08:35:49;22.10;99.90
25628;DHT22;40915;50.826;4.356;2022-08-19T08:38:15;22.10;99.90
25628;DHT22;40915;50.826;4.356;2022-08-19T08:41:09;22.10;99.90
25628;DHT22;40915;50.826;4.356;2022-08-19T08:43:38;22.20;99.90
25628;DHT22;40915;50.826;4.356;2022-08-19T08:46:25;22.20;99.90
25628;DHT22;40915;50.826;4.356;2022-08-19T08:51:43;22.10;99.90
25628;DHT22;40915;50.826;4.356;2022-08-19T08:54:12;22.10;99.90
25628;DHT22;40915;50.826;4.356;2022-08-19T08:56:41;22.00;99.90
25628;DHT22;40915;50.826;4.356;2022-08-19T09:01:37;21.80;99.90
25628;DHT22;40915;50.826;4.356;2022-08-19T09:04:07;21.90;99.90
25628;DHT22;40915;50.826;4.356;2022-08-19T09:06:38;21.90;99.90
25628;DHT22;40915;50.826;4.356;2022-08-19T09:12:04;22.00;99.90
25628;DHT22;40915;50.826;4.356;2022-08-19T09:14:50;22.20;99.90
25628;DHT22;40915;50.826;4.356;2022-08-19T09:17:19;22.20;99.90
25628;DHT22;40915;50.826;4.356;2022-08-19T09:22:23;22.20;99.90
25628;DHT22;40915;50.826;4.356;2022-08-19T09:24:50;22.30;99.90
25628;DHT22;40915;50.826;4.356;2022-08-19T09:27:18;22.30;99.90
25628;DHT22;40915;50.826;4.356;2022-08-19T09:29:44;22.30;99.90
25628;DHT22;40915;50.826;4.356;2022-08-19T09:32:10;22.30;99.90
25628;DHT22;40915;50.826;4.356;2022-08-19T09:34:36;22.30;99.90
25628;DHT22;40915;50.826;4.356;2022-08-19T09:37:01;22.30;99.90
25628;DHT22;40915;50.826;4.356;2022-08-19T09:39:28;22.30;99.90
25628;DHT22;40915;50.826;4.356;2022-08-19T09:41:56;22.40;99.90
25628;DHT22;40915;50.826;4.356;2022-08-19T09:44:21;22.40;99.90
25628;DHT22;40915;50.826;4.356;2022-08-19T09:46:47;22.50;99.90
25628;DHT22;40915;50.826;4.356;2022-08-19T09:49:13;22.60;99.90
25628;DHT22;40915;50.826;4.356;2022-08-19T09:51:39;22.60;99.90
25628;DHT22;40915;50.826;4.356;2022-08-19T09:54:05;22.70;99.90
25628;DHT22;40915;50.826;4.356;2022-08-19T09:56:31;22.50;99.90
25628;DHT22;40915;50.826;4.356;2022-08-19T09:58:58;22.50;99.90
25628;DHT22;40915;50.826;4.356;2022-08-19T10:01:26;22.50;99.90
25628;DHT22;40915;50.826;4.356;2022-08-19T10:03:56;22.50;99.90
25628;DHT22;40915;50.826;4.356;2022-08-19T10:06:24;22.60;99.90
25628;DHT22;40915;50.826;4.356;2022-08-19T10:08:51;22.70;99.90
25628;DHT22;40915;50.826;4.356;2022-08-19T10:11:18;22.80;99.90
25628;DHT22;40915;50.826;4.356;2022-08-19T10:13:44;22.90;99.90
25628;DHT22;40915;50.826;4.356;2022-08-19T10:16:16;23.00;99.90
25628;DHT22;40915;50.826;4.356;2022-08-19T10:18:43;22.90;99.90
25628;DHT22;40915;50.826;4.356;2022-08-19T10:21:12;22.90;99.90
25628;DHT22;40915;50.826;4.356;2022-08-19T10:23:41;23.00;99.90
25628;DHT22;40915;50.826;4.356;2022-08-19T10:26:15;23.00;99.90
25628;DHT22;40915;50.826;4.356;2022-08-19T10:28:41;23.00;99.90
25628;DHT22;40915;50.826;4.356;2022-08-19T10:38:49;22.90;99.90
25628;DHT22;40915;50.826;4.356;2022-08-19T10:41:18;22.90;99.90
25628;DHT22;40915;50.826;4.356;2022-08-19T10:43:45;22.90;99.90
25628;DHT22;40915;50.826;4.356;2022-08-19T10:46:13;22.90;99.90
25628;DHT22;40915;50.826;4.356;2022-08-19T10:48:40;23.00;99.90
25628;DHT22;40915;50.826;4.356;2022-08-19T10:51:06;23.00;99.90
25628;DHT22;40915;50.826;4.356;2022-08-19T10:53:51;23.10;99.90
25628;DHT22;40915;50.826;4.356;2022-08-19T10:56:18;23.10;99.90
25628;DHT22;40915;50.826;4.356;2022-08-19T10:59:03;23.20;99.90
25628;DHT22;40915;50.826;4.356;2022-08-19T11:01:30;23.20;99.90
25628;DHT22;40915;50.826;4.356;2022-08-19T11:03:56;23.00;99.90
25628;DHT22;40915;50.826;4.356;2022-08-19T11:06:23;22.80;99.90
25628;DHT22;40915;50.826;4.356;2022-08-19T11:08:51;22.70;99.90
25628;DHT22;40915;50.826;4.356;2022-08-19T11:11:17;22.80;99.90
25628;DHT22;40915;50.826;4.356;2022-08-19T11:13:43;22.80;99.90
25628;DHT22;40915;50.826;4.356;2022-08-19T11:16:14;23.00;99.90
25628;DHT22;40915;50.826;4.356;2022-08-19T11:18:43;22.90;99.90
25628;DHT22;40915;50.826;4.356;2022-08-19T11:21:31;23.00;99.90
25628;DHT22;40915;50.826;4.356;2022-08-19T11:24:01;23.00;99.90
25628;DHT22;40915;50.826;4.356;2022-08-19T11:26:29;22.90;99.90
25628;DHT22;40915;50.826;4.356;2022-08-19T11:28:57;22.80;99.90
25628;DHT22;40915;50.826;4.356;2022-08-19T11:31:26;22.80;99.90
25628;DHT22;40915;50.826;4.356;2022-08-19T11:33:52;22.70;99.90
25628;DHT22;40915;50.826;4.356;2022-08-19T11:36:21;22.70;99.90
25628;DHT22;40915;50.826;4.356;2022-08-19T11:38:49;22.60;99.90
25628;DHT22;40915;50.826;4.356;2022-08-19T12:01:00;23.60;99.90
25628;DHT22;40915;50.826;4.356;2022-08-19T12:05:52;24.00;99.90
25628;DHT22;40915;50.826;4.356;2022-08-19T12:08:18;24.30;99.90
25628;DHT22;40915;50.826;4.356;2022-08-19T12:10:44;24.50;99.90
25628;DHT22;40915;50.826;4.356;2022-08-19T12:13:11;24.60;99.90
25628;DHT22;40915;50.826;4.356;2022-08-19T12:15:44;24.60;99.90
25628;DHT22;40915;50.826;4.356;2022-08-19T12:18:11;24.70;99.90
25628;DHT22;40915;50.826;4.356;2022-08-19T12:20:38;24.80;99.90
25628;DHT22;40915;50.826;4.356;2022-08-19T12:23:06;24.90;99.90
25628;DHT22;40915;50.826;4.356;2022-08-19T12:25:32;24.90;99.90
25628;DHT22;40915;50.826;4.356;2022-08-19T12:27:58;24.90;99.90
25628;DHT22;40915;50.826;4.356;2022-08-19T12:30:24;24.80;99.90
25628;DHT22;40915;50.826;4.356;2022-08-19T12:32:50;24.80;99.90
25628;DHT22;40915;50.826;4.356;2022-08-19T12:35:17;24.60;99.90
25628;DHT22;40915;50.826;4.356;2022-08-19T12:37:46;24.60;99.90
25628;DHT22;40915;50.826;4.356;2022-08-19T12:40:13;24.60;99.90
25628;DHT22;40915;50.826;4.356;2022-08-19T12:42:39;24.60;99.90
25628;DHT22;40915;50.826;4.356;2022-08-19T12:45:11;24.80;99.90
25628;DHT22;40915;50.826;4.356;2022-08-19T12:47:37;24.80;99.90
25628;DHT22;40915;50.826;4.356;2022-08-19T12:50:03;25.00;99.90
25628;DHT22;40915;50.826;4.356;2022-08-19T12:52:34;25.20;99.90
25628;DHT22;40915;50.826;4.356;2022-08-19T12:55:03;25.10;99.90
25628;DHT22;40915;50.826;4.356;2022-08-19T12:57:30;25.20;99.90
25628;DHT22;40915;50.826;4.356;2022-08-19T13:00:01;25.20;99.90
25628;DHT22;40915;50.826;4.356;2022-08-19T13:02:29;25.20;99.90
25628;DHT22;40915;50.826;4.356;2022-08-19T13:04:57;25.20;99.90
25628;DHT22;40915;50.826;4.356;2022-08-19T13:07:23;25.30;99.90
25628;DHT22;40915;50.826;4.356;2022-08-19T13:09:51;25.30;99.90
25628;DHT22;40915;50.826;4.356;2022-08-19T13:12:17;25.30;99.90
25628;DHT22;40915;50.826;4.356;2022-08-19T13:14:45;25.30;99.90
25628;DHT22;40915;50.826;4.356;2022-08-19T13:17:16;25.20;99.90
25628;DHT22;40915;50.826;4.356;2022-08-19T13:19:42;25.10;99.90
25628;DHT22;40915;50.826;4.356;2022-08-19T13:22:07;25.00;99.90
25628;DHT22;40915;50.826;4.356;2022-08-19T13:24:33;25.00;99.90
25628;DHT22;40915;50.826;4.356;2022-08-19T13:27:00;24.90;99.90
25628;DHT22;40915;50.826;4.356;2022-08-19T13:29:25;25.00;99.90
25628;DHT22;40915;50.826;4.356;2022-08-19T13:32:10;25.00;99.90
25628;DHT22;40915;50.826;4.356;2022-08-19T13:34:54;25.10;99.90
25628;DHT22;40915;50.826;4.356;2022-08-19T13:37:19;25.20;99.90
25628;DHT22;40915;50.826;4.356;2022-08-19T13:40:08;25.20;99.90
25628;DHT22;40915;50.826;4.356;2022-08-19T13:42:39;25.20;99.90
25628;DHT22;40915;50.826;4.356;2022-08-19T13:45:05;25.20;99.90
25628;DHT22;40915;50.826;4.356;2022-08-19T13:47:32;25.30;99.90
25628;DHT22;40915;50.826;4.356;2022-08-19T13:50:00;25.30;99.90
25628;DHT22;40915;50.826;4.356;2022-08-19T13:52:26;25.30;99.90
25628;DHT22;40915;50.826;4.356;2022-08-19T13:54:53;25.40;99.90
25628;DHT22;40915;50.826;4.356;2022-08-19T13:57:19;25.30;99.90
25628;DHT22;40915;50.826;4.356;2022-08-19T13:59:44;25.30;99.90
25628;DHT22;40915;50.826;4.356;2022-08-19T14:02:10;25.20;99.90
25628;DHT22;40915;50.826;4.356;2022-08-19T14:04:36;25.10;99.90
25628;DHT22;40915;50.826;4.356;2022-08-19T14:07:03;25.00;99.90
25628;DHT22;40915;50.826;4.356;2022-08-19T14:09:29;25.00;99.90
25628;DHT22;40915;50.826;4.356;2022-08-19T14:11:55;24.80;99.90
25628;DHT22;40915;50.826;4.356;2022-08-19T14:14:21;24.50;99.90
25628;DHT22;40915;50.826;4.356;2022-08-19T14:16:47;24.40;99.90
25628;DHT22;40915;50.826;4.356;2022-08-19T14:19:13;24.10;99.90
25628;DHT22;40915;50.826;4.356;2022-08-19T14:21:39;24.10;99.90
25628;DHT22;40915;50.826;4.356;2022-08-19T14:24:06;24.10;99.90
25628;DHT22;40915;50.826;4.356;2022-08-19T14:26:32;24.10;99.90
25628;DHT22;40915;50.826;4.356;2022-08-19T14:28:58;24.20;99.90
25628;DHT22;40915;50.826;4.356;2022-08-19T14:31:24;24.20;99.90
25628;DHT22;40915;50.826;4.356;2022-08-19T14:33:50;24.00;99.90
25628;DHT22;40915;50.826;4.356;2022-08-19T14:36:19;24.00;99.90
25628;DHT22;40915;50.826;4.356;2022-08-19T14:38:46;23.90;99.90
25628;DHT22;40915;50.826;4.356;2022-08-19T14:41:16;23.70;99.90
25628;DHT22;40915;50.826;4.356;2022-08-19T14:43:46;23.60;99.90
25628;DHT22;40915;50.826;4.356;2022-08-19T14:46:14;23.50;99.90
25628;DHT22;40915;50.826;4.356;2022-08-19T14:48:41;23.40;99.90
25628;DHT22;40915;50.826;4.356;2022-08-19T14:51:07;23.20;99.90
25628;DHT22;40915;50.826;4.356;2022-08-19T14:53:33;23.10;99.90
25628;DHT22;40915;50.826;4.356;2022-08-19T14:56:00;23.10;99.90
25628;DHT22;40915;50.826;4.356;2022-08-19T14:58:26;23.30;99.90
25628;DHT22;40915;50.826;4.356;2022-08-19T15:00:52;23.60;99.90
25628;DHT22;40915;50.826;4.356;2022-08-19T15:03:18;23.90;99.90
25628;DHT22;40915;50.826;4.356;2022-08-19T15:05:43;24.20;99.90
25628;DHT22;40915;50.826;4.356;2022-08-19T15:08:09;24.40;99.90
25628;DHT22;40915;50.826;4.356;2022-08-19T15:10:37;24.50;99.90
25628;DHT22;40915;50.826;4.356;2022-08-19T15:13:03;24.40;99.90
25628;DHT22;40915;50.826;4.356;2022-08-19T15:15:29;24.40;99.90
25628;DHT22;40915;50.826;4.356;2022-08-19T15:17:54;24.30;99.90
25628;DHT22;40915;50.826;4.356;2022-08-19T15:20:22;24.30;99.90
25628;DHT22;40915;50.826;4.356;2022-08-19T15:22:48;24.30;99.90
25628;DHT22;40915;50.826;4.356;2022-08-19T15:25:15;24.20;99.90
25628;DHT22;40915;50.826;4.356;2022-08-19T15:27:41;24.30;99.90
25628;DHT22;40915;50.826;4.356;2022-08-19T15:30:09;24.40;99.90
25628;DHT22;40915;50.826;4.356;2022-08-19T15:32:36;24.40;99.90
25628;DHT22;40915;50.826;4.356;2022-08-19T15:35:02;24.50;99.90
25628;DHT22;40915;50.826;4.356;2022-08-19T15:37:29;24.50;99.90
25628;DHT22;40915;50.826;4.356;2022-08-19T15:39:54;24.40;99.90
25628;DHT22;40915;50.826;4.356;2022-08-19T15:42:20;24.30;99.90
25628;DHT22;40915;50.826;4.356;2022-08-19T15:44:46;24.20;99.90
25628;DHT22;40915;50.826;4.356;2022-08-19T15:47:13;24.20;99.90
25628;DHT22;40915;50.826;4.356;2022-08-19T15:49:39;24.10;99.90
25628;DHT22;40915;50.826;4.356;2022-08-19T15:52:05;24.00;99.90
25628;DHT22;40915;50.826;4.356;2022-08-19T15:54:32;24.00;99.90
25628;DHT22;40915;50.826;4.356;2022-08-19T15:56:58;24.00;99.90
25628;DHT22;40915;50.826;4.356;2022-08-19T15:59:43;24.00;99.90
25628;DHT22;40915;50.826;4.356;2022-08-19T16:02:27;24.00;99.90
25628;DHT22;40915;50.826;4.356;2022-08-19T16:05:14;23.90;99.90
25628;DHT22;40915;50.826;4.356;2022-08-19T16:07:59;23.70;99.90
25628;DHT22;40915;50.826;4.356;2022-08-19T16:10:25;23.70;99.90
25628;DHT22;40915;50.826;4.356;2022-08-19T16:12:51;23.60;99.90
25628;DHT22;40915;50.826;4.356;2022-08-19T16:15:17;23.50;99.90
25628;DHT22;40915;50.826;4.356;2022-08-19T16:17:48;23.40;99.90
25628;DHT22;40915;50.826;4.356;2022-08-19T16:20:16;23.30;99.90
25628;DHT22;40915;50.826;4.356;2022-08-19T16:22:47;23.20;99.90
25628;DHT22;40915;50.826;4.356;2022-08-19T16:25:13;23.20;99.90
25628;DHT22;40915;50.826;4.356;2022-08-19T16:27:39;23.10;99.90
25628;DHT22;40915;50.826;4.356;2022-08-19T16:30:06;23.10;99.90
25628;DHT22;40915;50.826;4.356;2022-08-19T16:32:32;23.10;99.90
25628;DHT22;40915;50.826;4.356;2022-08-19T16:34:58;23.10;99.90
25628;DHT22;40915;50.826;4.356;2022-08-19T16:37:27;23.10;99.90
25628;DHT22;40915;50.826;4.356;2022-08-19T16:39:53;23.20;99.90
25628;DHT22;40915;50.826;4.356;2022-08-19T16:42:18;23.20;99.90
25628;DHT22;40915;50.826;4.356;2022-08-19T16:44:45;23.30;99.90
25628;DHT22;40915;50.826;4.356;2022-08-19T16:47:12;23.20;99.90
25628;DHT22;40915;50.826;4.356;2022-08-19T16:49:38;23.10;99.90
25628;DHT22;40915;50.826;4.356;2022-08-19T16:52:05;23.10;99.90
25628;DHT22;40915;50.826;4.356;2022-08-19T16:54:35;23.00;99.90
25628;DHT22;40915;50.826;4.356;2022-08-19T16:57:02;23.00;99.90
25628;DHT22;40915;50.826;4.356;2022-08-19T16:59:28;22.90;99.90
25628;DHT22;40915;50.826;4.356;2022-08-19T17:01:54;23.00;99.90
25628;DHT22;40915;50.826;4.356;2022-08-19T17:04:19;22.90;99.90
25628;DHT22;40915;50.826;4.356;2022-08-19T17:06:45;22.80;99.90
25628;DHT22;40915;50.826;4.356;2022-08-19T17:09:11;22.80;99.90
25628;DHT22;40915;50.826;4.356;2022-08-19T17:11:38;22.80;99.90
25628;DHT22;40915;50.826;4.356;2022-08-19T17:14:04;22.70;99.90
25628;DHT22;40915;50.826;4.356;2022-08-19T17:16:33;22.80;99.90
25628;DHT22;40915;50.826;4.356;2022-08-19T17:19:01;22.80;99.90
25628;DHT22;40915;50.826;4.356;2022-08-19T17:21:29;22.80;99.90
25628;DHT22;40915;50.826;4.356;2022-08-19T17:24:00;22.80;99.90
25628;DHT22;40915;50.826;4.356;2022-08-19T17:26:27;22.80;99.90
25628;DHT22;40915;50.826;4.356;2022-08-19T17:28:55;22.80;99.90
25628;DHT22;40915;50.826;4.356;2022-08-19T17:31:24;22.70;99.90
25628;DHT22;40915;50.826;4.356;2022-08-19T17:33:50;22.60;99.90
25628;DHT22;40915;50.826;4.356;2022-08-19T17:36:20;22.50;99.90
25628;DHT22;40915;50.826;4.356;2022-08-19T17:38:51;22.40;99.90
25628;DHT22;40915;50.826;4.356;2022-08-19T17:41:17;22.30;99.90
25628;DHT22;40915;50.826;4.356;2022-08-19T17:43:43;22.30;99.90
25628;DHT22;40915;50.826;4.356;2022-08-19T17:46:09;22.20;99.90
25628;DHT22;40915;50.826;4.356;2022-08-19T17:48:39;22.20;99.90
25628;DHT22;40915;50.826;4.356;2022-08-19T17:51:20;22.20;99.90
25628;DHT22;40915;50.826;4.356;2022-08-19T17:53:47;22.10;99.90
25628;DHT22;40915;50.826;4.356;2022-08-19T17:56:12;22.10;99.90
25628;DHT22;40915;50.826;4.356;2022-08-19T17:58:39;22.10;99.90
25628;DHT22;40915;50.826;4.356;2022-08-19T18:01:13;22.00;99.90
25628;DHT22;40915;50.826;4.356;2022-08-19T18:03:40;21.90;99.90
25628;DHT22;40915;50.826;4.356;2022-08-19T18:06:06;21.80;99.90
25628;DHT22;40915;50.826;4.356;2022-08-19T18:08:33;21.80;99.90
25628;DHT22;40915;50.826;4.356;2022-08-19T18:11:03;21.70;99.90
25628;DHT22;40915;50.826;4.356;2022-08-19T18:13:28;21.60;99.90
25628;DHT22;40915;50.826;4.356;2022-08-19T18:15:55;21.60;99.90
25628;DHT22;40915;50.826;4.356;2022-08-19T18:18:24;21.60;99.90
25628;DHT22;40915;50.826;4.356;2022-08-19T18:20:53;21.60;99.90
25628;DHT22;40915;50.826;4.356;2022-08-19T18:23:18;21.60;99.90
25628;DHT22;40915;50.826;4.356;2022-08-19T18:25:44;21.60;99.90
25628;DHT22;40915;50.826;4.356;2022-08-19T18:28:10;21.50;99.90
25628;DHT22;40915;50.826;4.356;2022-08-19T18:30:36;21.50;99.90